Terminal Aerodrome Forecast
Issued by NWS

Home | Current Version | Previous Version | Graphics & Text | Print | Product List | Glossary Off
Versions: 1 2 3 4 5 6 7 8 9 10 11 12 13 14 15 16 17 18 19 20 21 22 23 24 25

000
FTUS43 KDDC 160753 AAA
TAFGCK
TAF AMD
KGCK 160753Z 1608/1706 18012KT P6SM VCTS BKN070CB
     FM160900 36011KT P6SM VCTS BKN045CB
     FM161100 33014G25KT P6SM BKN090
     FM161800 33014KT P6SM SCT200=

USA.gov is the U.S. government's official web portal to all federal, state and local government web resources and services.